Dormentes, Brazil
Current Conditions -  °F | °C
As of 2:00 PM on Friday 31 Oct 2014 (Local Time) from SBPL Reporting Station
Broken Clouds Broken Clouds  
Wind Chill: 97°   Ceiling: 4000
Heat Index: 97°   Visibility: 6mi
Dew Point: 57°   Wind: 13mph
Humidity: 27%   Direction: 110°ESE
Pressure: 29.88"   Gusts: NA
Location:  8.45°S, 40.77°W
Report Text: SBPL 311700Z 11011KT 9999 BKN040 36/14 Q1012
Loading
Personal Weather Stations






























Interactive Weather Map
Tropical Storm Tracking
New forecast layout! Learn more

10-Day Weather Forecast

Advertisements
Track Severe Weather on mobile